createdAt,value
2022-10-06T00:02:07.313Z,101344.25
2022-10-06T00:05:13.374Z,101339.50
2022-10-06T00:08:15.988Z,101341.31
2022-10-06T00:11:19.111Z,101343.94
2022-10-06T00:14:21.574Z,101337.72
2022-10-06T00:17:24.499Z,101337.56
2022-10-06T00:20:27.657Z,101342.69
2022-10-06T00:23:31.656Z,101345.19
2022-10-06T00:26:35.020Z,101343.44
2022-10-06T00:29:37.947Z,101343.44
2022-10-06T00:32:40.618Z,101344.22
2022-10-06T00:35:44.829Z,101346.00
2022-10-06T00:38:48.018Z,101339.00
2022-10-06T00:41:50.918Z,101339.09
2022-10-06T00:44:54.183Z,101337.25
2022-10-06T00:48:02.602Z,101330.34
2022-10-06T00:51:05.913Z,101334.56
2022-10-06T00:54:09.180Z,101338.91
2022-10-06T00:57:13.008Z,101337.94
2022-10-06T01:00:16.371Z,101340.31
2022-10-06T01:03:24.488Z,101333.25
2022-10-06T01:06:27.793Z,101330.66
2022-10-06T01:09:31.610Z,101338.44
2022-10-06T01:12:35.091Z,101336.59
2022-10-06T01:15:43.097Z,101338.22
2022-10-06T01:18:47.801Z,101346.00
2022-10-06T01:21:53.518Z,101342.19
2022-10-06T01:24:56.911Z,101347.41
2022-10-06T01:28:02.008Z,101340.09
2022-10-06T01:31:06.199Z,101346.84
2022-10-06T01:34:10.321Z,101342.50
2022-10-06T01:37:13.877Z,101340.66
2022-10-06T01:40:16.588Z,101339.84
2022-10-06T01:43:21.102Z,101337.16
2022-10-06T01:46:23.648Z,101350.81
2022-10-06T01:49:26.818Z,101357.66
2022-10-06T01:52:29.349Z,101357.44
2022-10-06T01:55:32.273Z,101362.47
2022-10-06T01:58:35.154Z,101366.63
2022-10-06T02:01:38.222Z,101363.06
2022-10-06T02:04:40.964Z,101361.97
2022-10-06T02:07:43.910Z,101360.84
2022-10-06T02:10:48.786Z,101359.81
2022-10-06T02:13:52.648Z,101364.28
2022-10-06T02:16:55.846Z,101367.66
2022-10-06T02:19:58.522Z,101363.16
2022-10-06T02:23:02.507Z,101368.31
2022-10-06T02:26:06.722Z,101365.50
2022-10-06T02:29:09.807Z,101367.81
2022-10-06T02:32:12.440Z,101370.34
2022-10-06T02:35:16.702Z,101377.16
2022-10-06T02:38:19.573Z,101380.44
2022-10-06T02:41:22.317Z,101381.28
2022-10-06T02:44:25.334Z,101375.09
2022-10-06T02:47:28.320Z,101370.56
2022-10-06T02:50:30.915Z,101376.41
2022-10-06T02:53:34.624Z,101366.66
2022-10-06T02:56:37.997Z,101374.44
2022-10-06T02:59:40.688Z,101371.81
2022-10-06T03:02:43.770Z,101371.81
2022-10-06T03:05:46.747Z,101375.19
2022-10-06T03:09:01.535Z,101369.66
2022-10-06T03:12:04.825Z,101365.16
2022-10-06T03:15:08.518Z,101365.09
2022-10-06T03:18:12.599Z,101364.19
2022-10-06T03:21:15.545Z,101368.91
2022-10-06T03:24:18.433Z,101374.00
2022-10-06T03:27:21.669Z,101371.88
2022-10-06T03:30:25.111Z,101364.81
2022-10-06T03:33:27.832Z,101369.19
2022-10-06T03:36:32.980Z,101369.78
2022-10-06T03:39:36.320Z,101380.25
2022-10-06T03:42:39.261Z,101376.50
2022-10-06T03:45:41.972Z,101371.69
2022-10-06T03:48:44.739Z,101371.44
2022-10-06T03:51:47.641Z,101370.75
2022-10-06T03:54:51.265Z,101378.44
2022-10-06T03:57:57.251Z,101378.22
2022-10-06T04:01:25.992Z,101377.16
2022-10-06T04:04:29.495Z,101380.59
2022-10-06T04:07:33.956Z,101385.06
2022-10-06T04:10:37.145Z,101385.00
2022-10-06T04:13:46.592Z,101387.47
2022-10-06T04:16:51.086Z,101388.28
2022-10-06T04:19:53.895Z,101397.09
2022-10-06T04:22:56.888Z,101395.31
2022-10-06T04:26:06.334Z,101391.62
2022-10-06T04:29:09.307Z,101395.87
2022-10-06T04:32:11.918Z,101394.84
2022-10-06T04:35:15.396Z,101398.25
2022-10-06T04:38:18.117Z,101401.69
2022-10-06T04:41:21.662Z,101395.59
2022-10-06T04:44:24.416Z,101399.00
2022-10-06T04:47:28.501Z,101397.28
2022-10-06T04:50:31.036Z,101389.19
2022-10-06T04:53:39.526Z,101389.28
2022-10-06T04:56:42.187Z,101395.34
2022-10-06T05:00:07.946Z,101397.03
2022-10-06T05:03:14.617Z,101394.22
2022-10-06T05:06:21.311Z,101396.06
2022-10-06T05:09:24.069Z,101398.75
2022-10-06T05:12:31.256Z,101403.19
2022-10-06T05:15:33.921Z,101395.59
2022-10-06T05:18:37.050Z,101397.44
2022-10-06T05:21:40.536Z,101394.19
2022-10-06T05:24:43.824Z,101398.66
2022-10-06T05:27:47.397Z,101404.44
2022-10-06T05:31:01.238Z,101400.41
2022-10-06T05:34:07.867Z,101399.75
2022-10-06T05:37:11.079Z,101409.44
2022-10-06T05:40:14.383Z,101407.06
2022-10-06T05:43:18.219Z,101405.84
2022-10-06T05:46:28.287Z,101409.97
2022-10-06T05:49:31.709Z,101420.19
2022-10-06T05:52:34.395Z,101406.03
2022-10-06T05:55:37.559Z,101417.03
2022-10-06T05:58:42.852Z,101417.50
2022-10-06T06:01:47.112Z,101423.09
2022-10-06T06:04:50.562Z,101417.38
2022-10-06T06:07:53.771Z,101422.91
2022-10-06T06:11:05.284Z,101422.97
2022-10-06T06:14:13.014Z,101427.03
2022-10-06T06:17:15.874Z,101428.84
2022-10-06T06:20:19.185Z,101430.47
2022-10-06T06:23:22.881Z,101439.91
2022-10-06T06:26:28.067Z,101451.03
2022-10-06T06:29:30.977Z,101448.62
2022-10-06T06:32:33.807Z,101456.87
2022-10-06T06:35:37.521Z,101461.97
2022-10-06T06:38:40.341Z,101476.09
2022-10-06T06:41:46.244Z,101470.03
2022-10-06T06:44:49.594Z,101468.66
2022-10-06T06:47:53.327Z,101467.19
2022-10-06T06:51:00.583Z,101476.78
2022-10-06T06:54:05.253Z,101465.88
2022-10-06T06:57:08.892Z,101473.44
2022-10-06T07:00:13.147Z,101476.94
2022-10-06T07:03:38.480Z,101476.78
2022-10-06T07:06:42.828Z,101466.25
2022-10-06T07:09:46.978Z,101477.09
2022-10-06T07:12:52.327Z,101477.97
2022-10-06T07:16:13.835Z,101481.94
2022-10-06T07:19:57.517Z,101481.13
2022-10-06T07:23:19.044Z,101478.78
2022-10-06T07:26:21.866Z,101478.25
2022-10-06T07:29:26.592Z,101485.22
2022-10-06T07:32:31.266Z,101484.91
2022-10-06T07:35:34.539Z,101497.69
2022-10-06T07:38:37.635Z,101490.38
2022-10-06T07:41:40.373Z,101486.34
2022-10-06T07:44:43.816Z,101488.75
2022-10-06T07:47:47.504Z,101477.56
2022-10-06T07:50:52.465Z,101482.16
2022-10-06T07:53:56.554Z,101480.87
2022-10-06T07:57:00.038Z,101471.31
2022-10-06T08:00:05.667Z,101483.97
2022-10-06T08:03:18.031Z,101473.34
2022-10-06T08:06:23.600Z,101476.47
2022-10-06T08:09:26.282Z,101484.19
2022-10-06T08:12:37.657Z,101470.91
2022-10-06T08:15:40.309Z,101482.06
2022-10-06T08:18:48.145Z,101483.03
2022-10-06T08:21:50.942Z,101481.94
2022-10-06T08:25:05.917Z,101474.25
2022-10-06T08:28:13.160Z,101474.06
2022-10-06T08:31:18.055Z,101472.59
2022-10-06T08:34:21.719Z,101465.34
2022-10-06T08:37:26.793Z,101469.75
2022-10-06T08:40:29.544Z,101463.41
2022-10-06T08:43:33.704Z,101464.84
2022-10-06T08:46:45.763Z,101459.16
2022-10-06T08:49:52.363Z,101464.84
2022-10-06T08:53:15.641Z,101472.09
2022-10-06T08:56:31.915Z,101465.38
2022-10-06T08:59:36.640Z,101462.69
2022-10-06T09:02:46.134Z,101468.59
2022-10-06T09:05:48.802Z,101466.22
2022-10-06T09:08:58.728Z,101460.06
2022-10-06T09:12:14.527Z,101465.53
2022-10-06T09:15:23.575Z,101460.66
2022-10-06T09:19:03.417Z,101465.88
2022-10-06T09:22:00.755Z,101460.72
2022-10-06T09:25:20.785Z,101472.94
2022-10-06T09:28:24.222Z,101469.03
2022-10-06T09:31:32.581Z,101476.72
2022-10-06T09:34:39.131Z,101475.13
2022-10-06T09:38:08.244Z,101463.22
2022-10-06T09:41:13.501Z,101466.94
2022-10-06T09:44:27.787Z,101466.69
2022-10-06T09:47:34.926Z,101469.25
2022-10-06T09:50:37.391Z,101471.03
2022-10-06T09:53:41.902Z,101461.94
2022-10-06T09:56:47.273Z,101466.75
2022-10-06T09:59:52.354Z,101477.44
2022-10-06T10:03:04.236Z,101477.53
2022-10-06T10:06:09.086Z,101476.34
2022-10-06T10:09:22.297Z,101471.97
2022-10-06T10:12:28.424Z,101472.91
2022-10-06T10:15:38.329Z,101468.72
2022-10-06T10:18:46.622Z,101471.16
2022-10-06T10:21:49.159Z,101475.91
2022-10-06T10:25:10.350Z,101472.28
2022-10-06T10:28:29.033Z,101469.41
2022-10-06T10:31:56.823Z,101467.00
2022-10-06T10:35:21.003Z,101465.22
2022-10-06T10:38:26.936Z,101454.47
2022-10-06T10:41:46.349Z,101453.03
2022-10-06T10:45:02.292Z,101442.81
2022-10-06T10:48:16.827Z,101446.44
2022-10-06T10:51:40.739Z,101452.22
2022-10-06T10:54:49.310Z,101446.16
2022-10-06T10:57:56.167Z,101453.47
2022-10-06T11:01:07.942Z,101448.47
2022-10-06T11:04:13.464Z,101456.28
2022-10-06T11:07:39.177Z,101449.34
2022-10-06T11:10:50.286Z,101446.41
2022-10-06T11:13:56.555Z,101460.72
2022-10-06T11:17:44.880Z,101452.12
2022-10-06T11:20:58.788Z,101448.53
2022-10-06T11:24:17.190Z,101452.84
2022-10-06T11:28:02.017Z,101447.09
2022-10-06T11:31:32.693Z,101448.09
2022-10-06T11:34:35.448Z,101436.94
2022-10-06T11:37:50.023Z,101436.34
2022-10-06T11:41:09.886Z,101438.69
2022-10-06T11:44:29.415Z,101439.03
2022-10-06T11:47:36.496Z,101425.28
2022-10-06T11:50:42.783Z,101418.41
2022-10-06T11:53:45.375Z,101424.59
2022-10-06T11:56:49.843Z,101421.97
2022-10-06T11:59:57.167Z,101424.41
2022-10-06T12:03:34.088Z,101424.03
2022-10-06T12:06:42.902Z,101421.53
2022-10-06T12:09:49.631Z,101413.06
2022-10-06T12:13:31.783Z,101418.69
2022-10-06T12:20:26.429Z,101418.03
2022-10-06T12:23:47.225Z,101425.25
2022-10-06T12:27:01.549Z,101419.06
2022-10-06T12:30:30.851Z,101416.47
2022-10-06T12:33:39.906Z,101416.50
2022-10-06T12:36:45.158Z,101418.34
2022-10-06T12:39:48.006Z,101419.25
2022-10-06T12:42:55.304Z,101414.84
2022-10-06T12:46:08.118Z,101412.19
2022-10-06T12:49:40.406Z,101410.34
2022-10-06T12:53:08.776Z,101406.66
2022-10-06T12:56:28.226Z,101397.72
2022-10-06T12:59:33.980Z,101404.94
2022-10-06T13:02:36.899Z,101400.53
2022-10-06T13:05:39.930Z,101395.28
2022-10-06T13:08:42.856Z,101396.16
2022-10-06T13:11:45.984Z,101397.91
2022-10-06T13:14:48.714Z,101395.09
2022-10-06T13:18:08.072Z,101393.13
2022-10-06T13:21:16.197Z,101387.72
2022-10-06T13:24:24.751Z,101380.50
2022-10-06T13:27:27.492Z,101376.19
2022-10-06T13:30:38.413Z,101383.41
2022-10-06T13:33:43.662Z,101372.69
2022-10-06T13:36:52.493Z,101376.25
2022-10-06T13:39:56.208Z,101371.88
2022-10-06T13:43:01.996Z,101376.50
2022-10-06T13:46:11.128Z,101374.78
2022-10-06T13:49:21.938Z,101368.66
2022-10-06T13:52:35.531Z,101371.34
2022-10-06T13:55:39.574Z,101378.44
2022-10-06T13:58:42.112Z,101378.44
2022-10-06T14:01:49.239Z,101377.56
2022-10-06T14:05:26.904Z,101374.91
2022-10-06T14:08:29.688Z,101371.34
2022-10-06T14:11:32.636Z,101375.81
2022-10-06T14:14:35.267Z,101377.59
2022-10-06T14:17:38.264Z,101382.91
2022-10-06T14:20:46.434Z,101381.97
2022-10-06T14:23:54.247Z,101384.53
2022-10-06T14:27:02.282Z,101390.72
2022-10-06T14:30:05.788Z,101385.34
2022-10-06T14:33:08.915Z,101390.66
2022-10-06T14:36:16.500Z,101395.87
2022-10-06T14:39:20.799Z,101394.03
2022-10-06T14:42:24.505Z,101390.41
2022-10-06T14:45:27.023Z,101396.56
2022-10-06T14:48:29.971Z,101400.03
2022-10-06T14:51:36.625Z,101399.06
2022-10-06T14:54:39.838Z,101403.47
2022-10-06T14:57:42.322Z,101414.06
2022-10-06T15:00:45.858Z,101411.34
2022-10-06T15:04:00.659Z,101413.03
2022-10-06T15:07:22.191Z,101414.00
2022-10-06T15:10:24.874Z,101409.38
2022-10-06T15:13:27.836Z,101410.06
2022-10-06T15:16:33.433Z,101411.75
2022-10-06T15:19:36.507Z,101423.16
2022-10-06T15:22:38.989Z,101423.91
2022-10-06T15:26:11.231Z,101424.69
2022-10-06T15:29:14.413Z,101434.31
2022-10-06T15:32:17.445Z,101428.00
2022-10-06T15:35:19.884Z,101434.97
2022-10-06T15:38:22.656Z,101436.56
2022-10-06T15:41:25.538Z,101438.13
2022-10-06T15:44:32.115Z,101437.13
2022-10-06T15:47:35.602Z,101435.22
2022-10-06T15:50:39.507Z,101445.72
2022-10-06T15:53:45.338Z,101443.84
2022-10-06T15:56:50.645Z,101449.97
2022-10-06T15:59:53.096Z,101448.88
2022-10-06T16:02:59.430Z,101464.66
2022-10-06T16:06:05.123Z,101461.03
2022-10-06T16:09:12.403Z,101465.28
2022-10-06T16:12:21.758Z,101464.44
2022-10-06T16:15:24.773Z,101477.28
2022-10-06T16:18:31.612Z,101471.84
2022-10-06T16:21:34.790Z,101472.53
2022-10-06T16:24:37.532Z,101475.16
2022-10-06T16:27:40.188Z,101482.13
2022-10-06T16:30:43.068Z,101483.75
2022-10-06T16:33:46.218Z,101475.75
2022-10-06T16:36:48.985Z,101482.72
2022-10-06T16:39:52.991Z,101491.44
2022-10-06T16:42:55.895Z,101497.53
2022-10-06T16:46:07.095Z,101497.38
2022-10-06T16:49:10.997Z,101498.13
2022-10-06T16:52:13.810Z,101500.69
2022-10-06T16:55:16.823Z,101505.91
2022-10-06T16:58:21.483Z,101506.69
2022-10-06T17:01:27.479Z,101507.47
2022-10-06T17:04:30.277Z,101509.06
2022-10-06T17:07:34.054Z,101510.75
2022-10-06T17:10:36.698Z,101520.34
2022-10-06T17:13:42.317Z,101519.34
2022-10-06T17:16:46.707Z,101513.03
2022-10-06T17:19:50.096Z,101525.31
2022-10-06T17:22:52.854Z,101525.34
2022-10-06T17:26:19.211Z,101523.44
2022-10-06T17:29:22.962Z,101527.81
2022-10-06T17:32:25.858Z,101531.25
2022-10-06T17:35:28.518Z,101526.72
2022-10-06T17:38:32.890Z,101529.25
2022-10-06T17:41:38.053Z,101527.28
2022-10-06T17:44:41.231Z,101531.56
2022-10-06T17:47:44.739Z,101532.28
2022-10-06T17:50:56.227Z,101536.47
2022-10-06T17:54:01.577Z,101535.47
2022-10-06T17:57:05.036Z,101531.81
2022-10-06T18:00:09.871Z,101533.44
2022-10-06T18:03:14.354Z,101528.94
2022-10-06T18:06:17.865Z,101529.78
2022-10-06T18:09:21.754Z,101527.06
2022-10-06T18:12:24.683Z,101535.72
2022-10-06T18:15:27.180Z,101540.03
2022-10-06T18:18:31.171Z,101536.44
2022-10-06T18:21:37.537Z,101537.22
2022-10-06T18:24:40.600Z,101539.78
2022-10-06T18:27:43.658Z,101537.03
2022-10-06T18:30:50.695Z,101545.72
2022-10-06T18:37:16.793Z,101540.31
2022-10-06T18:40:19.324Z,101542.88
2022-10-06T18:43:22.487Z,101553.34
2022-10-06T18:46:44.808Z,101557.59
2022-10-06T18:49:47.809Z,101553.94
2022-10-06T18:52:50.331Z,101559.84
2022-10-06T18:55:53.306Z,101562.37
2022-10-06T18:58:58.650Z,101565.75
2022-10-06T19:02:02.359Z,101569.16
2022-10-06T19:05:05.374Z,101572.56
2022-10-06T19:08:09.418Z,101576.00
2022-10-06T19:11:30.489Z,101572.37
2022-10-06T19:14:36.652Z,101566.16
2022-10-06T19:17:40.754Z,101565.19
2022-10-06T19:20:50.876Z,101557.25
2022-10-06T19:23:53.309Z,101558.06
2022-10-06T19:26:57.222Z,101550.88
2022-10-06T19:29:59.654Z,101551.66
2022-10-06T19:33:02.707Z,101558.63
2022-10-06T19:36:06.906Z,101562.00
2022-10-06T19:39:12.413Z,101565.41
2022-10-06T19:42:35.522Z,101568.78
2022-10-06T19:45:38.618Z,101573.19
2022-10-06T19:48:41.549Z,101581.91
2022-10-06T19:51:44.962Z,101579.22
2022-10-06T19:54:47.428Z,101583.56
2022-10-06T19:57:52.533Z,101587.91
2022-10-06T20:00:54.999Z,101582.41
2022-10-06T20:03:58.720Z,101587.56
2022-10-06T20:07:01.872Z,101590.16
2022-10-06T20:10:05.030Z,101589.09
2022-10-06T20:13:07.538Z,101590.81
2022-10-06T20:16:13.590Z,101600.41
2022-10-06T20:19:17.258Z,101598.63
2022-10-06T20:22:20.203Z,101606.47
2022-10-06T20:25:22.632Z,101597.66
2022-10-06T20:28:25.744Z,101591.47
2022-10-06T20:31:30.821Z,101598.44
2022-10-06T20:34:33.892Z,101591.34
2022-10-06T20:37:38.352Z,101601.72
2022-10-06T20:40:49.230Z,101614.84
2022-10-06T20:43:53.976Z,101612.97
2022-10-06T20:46:56.878Z,101614.72
2022-10-06T20:49:59.290Z,101619.87
2022-10-06T20:53:02.243Z,101611.81
2022-10-06T20:56:05.704Z,101614.31
2022-10-06T20:59:12.183Z,101623.91
2022-10-06T21:02:14.762Z,101626.37
2022-10-06T21:05:17.577Z,101623.56
2022-10-06T21:08:19.906Z,101622.53
2022-10-06T21:11:24.878Z,101625.97
2022-10-06T21:14:27.347Z,101621.47
2022-10-06T21:17:30.311Z,101623.16
2022-10-06T21:20:32.950Z,101623.03
2022-10-06T21:23:38.772Z,101621.16
2022-10-06T21:26:42.431Z,101622.81
2022-10-06T21:29:45.454Z,101621.81
2022-10-06T21:32:47.858Z,101620.03
2022-10-06T21:36:04.998Z,101624.31
2022-10-06T21:39:07.642Z,101621.59
2022-10-06T21:42:11.082Z,101623.19
2022-10-06T21:45:13.639Z,101618.66
2022-10-06T21:48:18.225Z,101617.72
2022-10-06T21:51:23.034Z,101618.47
2022-10-06T21:54:26.074Z,101624.47
2022-10-06T21:57:28.540Z,101622.56
2022-10-06T22:00:31.427Z,101621.66
2022-10-06T22:03:38.733Z,101627.72
2022-10-06T22:06:42.738Z,101625.88
2022-10-06T22:09:45.532Z,101627.47
2022-10-06T22:12:49.065Z,101623.97
2022-10-06T22:15:51.965Z,101630.06
2022-10-06T22:18:56.018Z,101632.63
2022-10-06T22:21:58.847Z,101629.94
2022-10-06T22:25:01.611Z,101627.25
2022-10-06T22:28:04.375Z,101632.44
2022-10-06T22:31:08.638Z,101628.75
2022-10-06T22:34:13.326Z,101622.53
2022-10-06T22:37:16.697Z,101623.41
2022-10-06T22:40:19.402Z,101631.25
2022-10-06T22:43:22.308Z,101627.66
2022-10-06T22:46:31.110Z,101621.53
2022-10-06T22:49:33.798Z,101614.47
2022-10-06T22:52:36.494Z,101611.78
2022-10-06T22:55:39.121Z,101608.97
2022-10-06T22:58:42.913Z,101611.56
2022-10-06T23:01:45.610Z,101618.47
2022-10-06T23:04:48.304Z,101614.88
2022-10-06T23:07:51.451Z,101606.87
2022-10-06T23:10:54.220Z,101614.69
2022-10-06T23:13:56.898Z,101610.19
2022-10-06T23:17:00.592Z,101608.38
2022-10-06T23:20:04.433Z,101606.59
2022-10-06T23:23:07.198Z,101604.75
2022-10-06T23:26:12.346Z,101594.97
2022-10-06T23:29:15.075Z,101599.22
2022-10-06T23:32:17.880Z,101603.47
2022-10-06T23:35:20.734Z,101599.97
2022-10-06T23:38:23.626Z,101601.62
2022-10-06T23:41:26.339Z,101610.22
2022-10-06T23:44:29.283Z,101603.06
2022-10-06T23:47:31.948Z,101610.00
2022-10-06T23:50:34.678Z,101602.87
2022-10-06T23:53:37.850Z,101606.97
2022-10-06T23:56:40.510Z,101612.97
2022-10-06T23:59:43.182Z,101604.16
